Airport Name : Jujuy

Other Name : Jujuy

ICAO : SASJ

IATA : JUJ

FAA :

Latitude : -24.392778

Longitude : -65.097778

Country : Argentina

Local Date and Time : 15 Jul 2024 10:45

 

TAF (Terminal Aerodrome Forecast)

TAF SASJ 151100Z 1512/1612 29005KT CAVOK TX18/1518Z TN00/1611Z BECMG 1513/1515 05005KT BECMG 1600/1602 30005KT

 

METAR (METeorological Aerodrome Report)

SASJ 151300Z 35004KT CAVOK 08/00 Q1029

SASJ 151200Z 32004KT CAVOK 03/M00 Q1029

SASJ 151100Z 30004KT CAVOK M01/M03 Q1028

SASJ 151000Z 29004KT CAVOK 01/M02 Q1028